createdAt,value
2022-09-15T00:02:27.530Z,8.80
2022-09-15T00:07:32.126Z,8.68
2022-09-15T00:12:34.778Z,8.13
2022-09-15T00:17:37.408Z,8.65
2022-09-15T00:22:41.375Z,8.35
2022-09-15T00:27:43.971Z,7.38
2022-09-15T00:32:46.572Z,8.00
2022-09-15T00:37:50.561Z,9.07
2022-09-15T00:42:53.230Z,7.88
2022-09-15T00:47:55.857Z,7.22
2022-09-15T00:53:02.035Z,7.68
2022-09-15T00:58:06.642Z,8.30
2022-09-15T01:03:09.281Z,10.15
2022-09-15T01:08:18.815Z,9.27
2022-09-15T01:13:21.401Z,8.05
2022-09-15T01:18:28.513Z,8.93
2022-09-15T01:23:46.723Z,9.75
2022-09-15T01:29:05.885Z,11.35
2022-09-15T01:34:15.790Z,10.85
2022-09-15T01:39:22.616Z,10.43
2022-09-15T01:44:27.593Z,14.98
2022-09-15T01:49:35.866Z,10.05
2022-09-15T01:54:44.257Z,11.02
2022-09-15T01:59:46.831Z,10.70
2022-09-15T02:04:53.368Z,9.23
2022-09-15T02:10:00.783Z,13.02
2022-09-15T02:15:08.005Z,10.77
2022-09-15T02:20:16.461Z,13.10
2022-09-15T02:25:22.013Z,14.40
2022-09-15T02:30:25.184Z,12.23
2022-09-15T02:35:30.934Z,10.55
2022-09-15T02:40:33.872Z,11.90
2022-09-15T02:45:36.652Z,11.55
2022-09-15T02:50:41.220Z,9.57
2022-09-15T02:55:43.801Z,11.70
2022-09-15T03:00:46.449Z,13.93
2022-09-15T03:05:50.410Z,10.32
2022-09-15T03:10:53.075Z,11.43
2022-09-15T03:15:55.715Z,9.98
2022-09-15T03:20:59.810Z,14.70
2022-09-15T03:26:03.968Z,11.63
2022-09-15T03:31:07.518Z,13.18
2022-09-15T03:36:11.801Z,9.32
2022-09-15T03:41:14.802Z,12.48
2022-09-15T03:46:17.922Z,10.30
2022-09-15T03:51:22.164Z,12.07
2022-09-15T03:56:26.070Z,12.02
2022-09-15T04:01:29.071Z,7.82
2022-09-15T04:06:33.138Z,10.50
2022-09-15T04:11:35.736Z,11.95
2022-09-15T04:16:38.335Z,9.75
2022-09-15T04:21:42.279Z,12.27
2022-09-15T04:26:45.164Z,11.45
2022-09-15T04:31:48.530Z,10.93
2022-09-15T04:36:52.686Z,11.63
2022-09-15T04:41:55.455Z,8.45
2022-09-15T04:46:58.141Z,7.78
2022-09-15T04:52:04.757Z,11.82
2022-09-15T04:57:10.663Z,9.60
2022-09-15T05:02:13.349Z,10.90
2022-09-15T05:07:17.391Z,9.10
2022-09-15T05:12:19.973Z,12.00
2022-09-15T05:17:26.211Z,7.45
2022-09-15T05:22:30.990Z,14.35
2022-09-15T05:27:33.810Z,11.82
2022-09-15T05:32:36.430Z,9.07
2022-09-15T05:37:40.403Z,10.80
2022-09-15T05:42:42.999Z,8.90
2022-09-15T05:47:45.637Z,11.70
2022-09-15T05:52:53.107Z,9.90
2022-09-15T05:57:55.706Z,9.40
2022-09-15T06:02:58.362Z,9.90
2022-09-15T06:08:02.839Z,12.18
2022-09-15T06:13:05.984Z,11.93
2022-09-15T06:18:08.581Z,11.05
2022-09-15T06:23:12.528Z,10.88
2022-09-15T06:28:15.183Z,10.35
2022-09-15T06:33:17.803Z,11.68
2022-09-15T06:38:21.941Z,10.20
2022-09-15T06:43:24.635Z,7.80
2022-09-15T06:48:27.287Z,12.48
2022-09-15T06:53:32.447Z,10.40
2022-09-15T06:58:36.217Z,9.70
2022-09-15T07:03:40.254Z,10.27
2022-09-15T07:08:45.329Z,8.40
2022-09-15T07:13:48.537Z,9.10
2022-09-15T07:18:51.147Z,8.73
2022-09-15T07:23:57.545Z,8.82
2022-09-15T07:29:01.556Z,9.30
2022-09-15T07:34:04.252Z,7.68
2022-09-15T07:39:08.288Z,7.10
2022-09-15T07:44:11.829Z,9.35
2022-09-15T07:49:14.587Z,7.63
2022-09-15T07:54:22.612Z,5.40
2022-09-15T07:59:25.717Z,7.03
2022-09-15T08:04:28.640Z,5.15
2022-09-15T08:09:32.686Z,5.47
2022-09-15T08:14:35.957Z,5.32
2022-09-15T08:19:38.604Z,4.05
2022-09-15T08:24:42.535Z,5.07
2022-09-15T08:29:45.255Z,6.30
2022-09-15T08:34:47.925Z,6.75
2022-09-15T08:39:52.205Z,10.35
2022-09-15T08:44:57.920Z,6.72
2022-09-15T08:50:05.173Z,9.10
2022-09-15T08:55:15.005Z,5.85
2022-09-15T09:00:18.446Z,5.82
2022-09-15T09:05:42.948Z,8.90
2022-09-15T09:10:51.944Z,6.70
2022-09-15T09:16:09.442Z,6.22
2022-09-15T09:21:20.158Z,9.07
2022-09-15T09:26:24.106Z,7.50
2022-09-15T09:31:28.621Z,9.45
2022-09-15T09:36:31.435Z,6.72
2022-09-15T09:41:38.860Z,6.43
2022-09-15T09:46:42.655Z,11.15
2022-09-15T09:51:52.928Z,6.13
2022-09-15T09:56:58.332Z,5.75
2022-09-15T10:02:20.917Z,5.32
2022-09-15T10:07:25.739Z,4.30
2022-09-15T10:12:34.108Z,5.10
2022-09-15T10:17:42.482Z,5.35
2022-09-15T10:22:45.371Z,6.13
2022-09-15T10:28:03.364Z,3.95
2022-09-15T10:33:20.135Z,6.13
2022-09-15T10:38:30.644Z,3.58
2022-09-15T10:43:42.034Z,4.20
2022-09-15T10:48:49.860Z,3.10
2022-09-15T10:54:05.806Z,6.03
2022-09-15T10:59:38.020Z,4.53
2022-09-15T11:05:11.575Z,3.60
2022-09-15T11:10:20.133Z,4.00
2022-09-15T11:15:38.443Z,2.80
2022-09-15T11:21:06.953Z,2.70
2022-09-15T11:26:14.874Z,4.53
2022-09-15T11:31:22.307Z,9.40
2022-09-15T11:36:31.448Z,6.30
2022-09-15T11:41:37.089Z,2.30
2022-09-15T11:46:51.611Z,4.53
2022-09-15T11:51:59.433Z,3.15
2022-09-15T11:57:02.048Z,3.55
2022-09-15T12:02:12.788Z,2.33
2022-09-15T12:07:19.766Z,2.85
2022-09-15T12:12:22.988Z,2.47
2022-09-15T12:17:30.851Z,3.42
2022-09-15T12:22:37.438Z,1.88
2022-09-15T12:27:40.299Z,2.95
2022-09-15T12:32:44.238Z,5.50
2022-09-15T12:37:47.877Z,1.48
2022-09-15T12:42:50.710Z,2.47
2022-09-15T12:47:56.576Z,1.10
2022-09-15T12:53:00.938Z,2.17
2022-09-15T12:58:08.780Z,2.55
2022-09-15T13:03:28.664Z,2.08
2022-09-15T13:08:49.316Z,5.07
2022-09-15T13:13:54.532Z,1.30
2022-09-15T13:19:17.765Z,2.83
2022-09-15T13:24:38.769Z,1.27
2022-09-15T13:29:47.502Z,1.55
2022-09-15T13:35:41.231Z,4.93
2022-09-15T13:41:18.726Z,2.55
2022-09-15T13:46:32.679Z,2.65
2022-09-15T13:51:38.151Z,3.17
2022-09-15T13:56:41.246Z,0.88
2022-09-15T14:01:44.835Z,2.67
2022-09-15T14:06:50.410Z,4.45
2022-09-15T14:11:54.310Z,2.72
2022-09-15T14:16:57.558Z,3.00
2022-09-15T14:22:02.228Z,2.28
2022-09-15T14:27:10.128Z,3.97
2022-09-15T14:32:14.904Z,2.28
2022-09-15T14:37:23.809Z,1.98
2022-09-15T14:42:30.647Z,1.90
2022-09-15T14:47:33.359Z,2.38
2022-09-15T14:52:40.434Z,2.05
2022-09-15T14:57:45.506Z,2.13
2022-09-15T15:02:58.517Z,1.33
2022-09-15T15:08:05.004Z,1.58
2022-09-15T15:13:11.215Z,2.03
2022-09-15T15:18:32.424Z,4.55
2022-09-15T15:23:46.887Z,5.05
2022-09-15T15:28:49.783Z,3.35
2022-09-15T15:33:55.789Z,2.17
2022-09-15T15:39:01.687Z,2.08
2022-09-15T15:44:08.604Z,1.67
2022-09-15T15:49:13.258Z,3.35
2022-09-15T15:54:17.315Z,1.13
2022-09-15T15:59:20.927Z,3.60
2022-09-15T16:04:23.707Z,2.25
2022-09-15T16:09:27.811Z,2.78
2022-09-15T16:14:30.460Z,0.90
2022-09-15T16:19:33.193Z,1.17
2022-09-15T16:24:37.147Z,3.70
2022-09-15T16:29:39.722Z,2.10
2022-09-15T16:34:42.376Z,3.15
2022-09-15T16:39:46.453Z,2.60
2022-09-15T16:44:49.123Z,1.63
2022-09-15T16:49:52.697Z,1.42
2022-09-15T16:54:57.114Z,1.98
2022-09-15T16:59:59.756Z,3.42
2022-09-15T17:05:02.406Z,2.63
2022-09-15T17:10:07.905Z,1.02
2022-09-15T17:15:19.964Z,2.40
2022-09-15T17:20:23.760Z,1.60
2022-09-15T17:25:30.104Z,3.50
2022-09-15T17:30:33.327Z,2.17
2022-09-15T17:35:37.382Z,1.38
2022-09-15T17:40:41.453Z,2.45
2022-09-15T17:45:44.144Z,1.17
2022-09-15T17:50:48.799Z,1.73
2022-09-15T17:55:54.224Z,1.50
2022-09-15T18:00:56.959Z,1.85
2022-09-15T18:06:00.987Z,0.88
2022-09-15T18:11:06.540Z,3.80
2022-09-15T18:16:13.154Z,1.60
2022-09-15T18:21:24.508Z,5.78
2022-09-15T18:26:28.515Z,2.38
2022-09-15T18:31:31.348Z,4.05
2022-09-15T18:36:34.245Z,1.00
2022-09-15T18:41:38.988Z,3.15
2022-09-15T18:46:42.015Z,2.00
2022-09-15T18:51:52.207Z,2.60
2022-09-15T18:56:56.415Z,1.98
2022-09-15T19:01:59.278Z,1.25
2022-09-15T19:07:02.035Z,1.92
2022-09-15T19:12:06.568Z,2.08
2022-09-15T19:17:09.307Z,2.63
2022-09-15T19:22:11.998Z,1.75
2022-09-15T19:27:16.038Z,1.10
2022-09-15T19:32:19.301Z,1.20
2022-09-15T19:37:22.768Z,1.30
2022-09-15T19:42:26.809Z,1.33
2022-09-15T19:47:29.507Z,3.25
2022-09-15T19:52:32.347Z,0.95
2022-09-15T19:57:39.473Z,3.25
2022-09-15T20:02:42.537Z,3.53
2022-09-15T20:07:48.080Z,1.77
2022-09-15T20:12:52.114Z,2.60
2022-09-15T20:17:54.787Z,1.85
2022-09-15T20:22:57.726Z,3.65
2022-09-15T20:28:01.777Z,3.80
2022-09-15T20:33:04.434Z,2.85
2022-09-15T20:38:07.087Z,1.55
2022-09-15T20:43:11.144Z,1.67
2022-09-15T20:48:13.749Z,4.93
2022-09-15T20:53:16.401Z,2.22
2022-09-15T20:58:20.360Z,6.50
2022-09-15T21:03:24.086Z,2.58
2022-09-15T21:08:26.792Z,2.63
2022-09-15T21:13:32.275Z,1.80
2022-09-15T21:18:36.388Z,2.10
2022-09-15T21:23:41.293Z,3.33
2022-09-15T21:28:45.607Z,2.33
2022-09-15T21:33:49.023Z,6.70
2022-09-15T21:38:53.392Z,2.13
2022-09-15T21:43:58.726Z,1.48
2022-09-15T21:49:01.424Z,3.50
2022-09-15T21:54:04.892Z,3.30
2022-09-15T21:59:09.293Z,1.15
2022-09-15T22:04:12.244Z,1.77
2022-09-15T22:09:16.206Z,0.75
2022-09-15T22:14:21.395Z,2.95
2022-09-15T22:19:24.202Z,1.38
2022-09-15T22:24:26.950Z,1.60
2022-09-15T22:29:30.882Z,1.75
2022-09-15T22:34:33.512Z,0.93
2022-09-15T22:39:58.096Z,0.82
2022-09-15T22:45:00.136Z,3.15
2022-09-15T22:50:02.757Z,1.00
2022-09-15T22:55:06.181Z,0.60
2022-09-15T23:00:12.049Z,2.75
2022-09-15T23:05:14.685Z,2.25
2022-09-15T23:10:17.440Z,1.83
2022-09-15T23:15:21.402Z,2.17
2022-09-15T23:20:24.019Z,4.40
2022-09-15T23:25:26.999Z,1.27
2022-09-15T23:30:30.975Z,2.38
2022-09-15T23:35:33.582Z,1.65
2022-09-15T23:40:36.192Z,2.60
2022-09-15T23:45:40.874Z,1.60
2022-09-15T23:50:44.113Z,4.22
2022-09-15T23:55:47.409Z,2.30
